Time,TemperatureF,DewpointF,PressureIn,WindDirection,WindDirectionDegrees,WindSpeedMPH,WindSpeedGustMPH,Humidity,HourlyPrecipIn,Conditions,Clouds,dailyrainin,SoftwareType,DateUTC
2013-05-23 00:07:00,46.7,28.0,29.96,NNE,18,0.0,-999.0,48,-99.99,,,0.00,weatherlink.com 1.10,2013-05-23 07:07:00,
2013-05-23 00:22:00,46.8,29.0,29.96,East,96,0.0,-999.0,51,-99.99,,,0.00,weatherlink.com 1.10,2013-05-23 07:22:00,
2013-05-23 00:37:00,45.6,33.0,29.96,SSE,164,0.0,-999.0,62,-99.99,,,0.00,weatherlink.com 1.10,2013-05-23 07:37:00,
2013-05-23 00:52:00,44.4,33.0,29.97,ESE,123,0.0,-999.0,65,-99.99,,,0.00,weatherlink.com 1.10,2013-05-23 07:52:00,
2013-05-23 01:07:00,43.6,33.0,29.96,ESE,123,0.0,-999.0,66,-99.99,,,0.00,weatherlink.com 1.10,2013-05-23 08:07:00,
2013-05-23 01:22:00,43.5,32.0,29.95,ENE,60,0.0,-999.0,63,-99.99,,,0.00,weatherlink.com 1.10,2013-05-23 08:22:00,
2013-05-23 01:37:00,43.8,31.0,29.95,ENE,78,3.0,-999.0,62,-99.99,,,0.00,weatherlink.com 1.10,2013-05-23 08:37:00,
2013-05-23 01:52:00,44.7,32.0,29.95,East,97,0.0,-999.0,61,-99.99,,,0.00,weatherlink.com 1.10,2013-05-23 08:52:00,
2013-05-23 02:07:00,45.0,32.0,29.94,ENE,58,0.0,-999.0,60,-99.99,,,0.00,weatherlink.com 1.10,2013-05-23 09:07:00,
2013-05-23 02:22:00,45.3,32.0,29.94,NE,38,0.0,-999.0,60,-99.99,,,0.00,weatherlink.com 1.10,2013-05-23 09:22:00,
2013-05-23 02:37:00,45.3,32.0,29.94,West,260,0.0,-999.0,61,-99.99,,,0.00,weatherlink.com 1.10,2013-05-23 09:37:00,
2013-05-23 02:52:00,45.0,33.0,29.93,NE,40,3.0,-999.0,62,-99.99,,,0.00,weatherlink.com 1.10,2013-05-23 09:52:00,
2013-05-23 03:07:00,45.1,33.0,29.95,ENE,64,0.0,-999.0,64,-99.99,,,0.00,weatherlink.com 1.10,2013-05-23 10:07:00,
2013-05-23 03:22:00,45.0,33.0,29.94,North,5,0.0,-999.0,62,-99.99,,,0.00,weatherlink.com 1.10,2013-05-23 10:22:00,
2013-05-23 03:37:00,44.9,32.0,29.95,ENE,61,0.0,-999.0,61,-99.99,,,0.00,weatherlink.com 1.10,2013-05-23 10:37:00,
2013-05-23 03:52:00,45.0,32.0,29.94,NNW,344,0.0,-999.0,61,-99.99,,,0.00,weatherlink.com 1.10,2013-05-23 10:52:00,
2013-05-23 04:07:00,44.9,32.0,29.94,NE,44,0.0,-999.0,61,-99.99,,,0.00,weatherlink.com 1.10,2013-05-23 11:07:00,
2013-05-23 04:22:00,44.9,32.0,29.95,East,86,0.0,-999.0,61,-99.99,,,0.00,weatherlink.com 1.10,2013-05-23 11:22:00,
2013-05-23 04:37:00,44.6,32.0,29.95,ENE,76,1.0,-999.0,62,-99.99,,,0.00,weatherlink.com 1.10,2013-05-23 11:37:00,
2013-05-23 04:52:00,44.6,31.0,29.96,ENE,63,0.0,-999.0,60,-99.99,,,0.00,weatherlink.com 1.10,2013-05-23 11:52:00,
2013-05-23 05:07:00,44.3,31.0,29.95,NNW,327,0.0,-999.0,59,-99.99,,,0.00,weatherlink.com 1.10,2013-05-23 12:07:00,
2013-05-23 05:22:00,44.2,30.0,29.96,NE,44,0.0,-999.0,59,-99.99,,,0.00,weatherlink.com 1.10,2013-05-23 12:22:00,
2013-05-23 05:37:00,44.6,30.0,29.96,ENE,59,0.0,-999.0,56,-99.99,,,0.00,weatherlink.com 1.10,2013-05-23 12:37:00,
2013-05-23 05:52:00,44.6,30.0,29.96,NE,40,0.0,-999.0,57,-99.99,,,0.00,weatherlink.com 1.10,2013-05-23 12:52:00,
2013-05-23 06:07:00,44.6,30.0,29.96,NNE,13,0.0,-999.0,57,-99.99,,,0.00,weatherlink.com 1.10,2013-05-23 13:07:00,
2013-05-23 06:22:00,44.5,31.0,29.97,North,360,2.0,-999.0,59,-99.99,,,0.00,weatherlink.com 1.10,2013-05-23 13:22:00,
2013-05-23 06:37:00,44.3,31.0,29.97,NNE,15,0.0,-999.0,60,-99.99,,,0.00,weatherlink.com 1.10,2013-05-23 13:37:00,
2013-05-23 06:52:00,44.1,31.0,29.98,East,92,0.0,-999.0,60,-99.99,,,0.00,weatherlink.com 1.10,2013-05-23 13:52:00,
2013-05-23 07:06:00,44.2,31.0,29.98,NE,52,0.0,-999.0,60,-99.99,,,0.00,weatherlink.com 1.10,2013-05-23 14:06:00,
2013-05-23 07:22:00,44.8,31.0,29.98,North,11,0.0,-999.0,59,-99.99,,,0.00,weatherlink.com 1.10,2013-05-23 14:22:00,
2013-05-23 07:37:00,45.6,32.0,29.99,SE,146,0.0,-999.0,59,-99.99,,,0.00,weatherlink.com 1.10,2013-05-23 14:37:00,
2013-05-23 07:52:00,45.7,33.0,30.00,SSW,206,0.0,-999.0,61,-99.99,,,0.00,weatherlink.com 1.10,2013-05-23 14:52:00,
2013-05-23 08:07:00,46.9,32.0,30.00,East,82,0.0,-999.0,56,-99.99,,,0.00,weatherlink.com 1.10,2013-05-23 15:07:00,
2013-05-23 08:22:00,48.1,33.0,30.00,NNW,338,0.0,-999.0,56,-99.99,,,0.00,weatherlink.com 1.10,2013-05-23 15:22:00,
2013-05-23 08:37:00,47.4,33.0,30.01,West,269,0.0,-999.0,57,-99.99,,,0.00,weatherlink.com 1.10,2013-05-23 15:37:00,
2013-05-23 08:52:00,47.7,33.0,30.01,WNW,291,0.0,-999.0,58,-99.99,,,0.00,weatherlink.com 1.10,2013-05-23 15:52:00,
2013-05-23 09:07:00,47.7,34.0,30.01,WSW,254,0.0,-999.0,60,-99.99,,,0.00,weatherlink.com 1.10,2013-05-23 16:07:00,
2013-05-23 09:21:00,48.2,35.0,30.01,West,263,0.0,-999.0,61,-99.99,,,0.00,weatherlink.com 1.10,2013-05-23 16:21:00,
2013-05-23 09:36:00,50.6,36.0,30.00,West,263,0.0,-999.0,58,-99.99,,,0.00,weatherlink.com 1.10,2013-05-23 16:36:00,
2013-05-23 09:51:00,51.9,38.0,30.01,WSW,251,0.0,-999.0,59,-99.99,,,0.00,weatherlink.com 1.10,2013-05-23 16:51:00,
2013-05-23 10:06:00,52.9,35.0,30.01,WSW,248,0.0,-999.0,52,-99.99,,,0.00,weatherlink.com 1.10,2013-05-23 17:06:00,
2013-05-23 10:21:00,54.1,39.0,30.02,SW,234,0.0,-999.0,56,-99.99,,,0.00,weatherlink.com 1.10,2013-05-23 17:21:00,
2013-05-23 10:36:00,54.1,38.0,30.02,SW,233,0.0,-999.0,55,-99.99,,,0.00,weatherlink.com 1.10,2013-05-23 17:36:00,
2013-05-23 10:51:00,55.8,38.0,30.02,SW,229,0.0,-999.0,51,-99.99,,,0.00,weatherlink.com 1.10,2013-05-23 17:51:00,
2013-05-23 11:06:00,56.1,38.0,30.02,SW,220,0.0,-999.0,51,-99.99,,,0.00,weatherlink.com 1.10,2013-05-23 18:06:00,
2013-05-23 11:21:00,55.7,40.0,30.03,SW,225,0.0,-999.0,55,-99.99,,,0.00,weatherlink.com 1.10,2013-05-23 18:21:00,
2013-05-23 11:36:00,54.8,40.0,30.03,WSW,242,0.0,-999.0,57,-99.99,,,0.00,weatherlink.com 1.10,2013-05-23 18:36:00,
2013-05-23 11:51:00,55.2,40.0,30.03,West,263,0.0,-999.0,56,-99.99,,,0.00,weatherlink.com 1.10,2013-05-23 18:51:00,
2013-05-23 12:06:00,55.5,40.0,30.03,West,262,0.0,-999.0,57,-99.99,,,0.00,weatherlink.com 1.10,2013-05-23 19:06:00,
2013-05-23 12:21:00,56.0,39.0,30.03,West,266,0.0,-999.0,54,-99.99,,,0.00,weatherlink.com 1.10,2013-05-23 19:21:00,
2013-05-23 12:36:00,55.5,40.0,30.03,SSE,147,0.0,-999.0,57,-99.99,,,0.00,weatherlink.com 1.10,2013-05-23 19:36:00,
2013-05-23 12:51:00,55.9,41.0,30.04,SSW,210,3.0,-999.0,57,-99.99,,,0.00,weatherlink.com 1.10,2013-05-23 19:51:00,
2013-05-23 13:06:00,55.8,41.0,30.04,South,180,0.0,-999.0,58,-99.99,,,0.00,weatherlink.com 1.10,2013-05-23 20:06:00,
2013-05-23 13:21:00,54.8,41.0,30.04,WSW,257,0.0,-999.0,60,-99.99,,,0.00,weatherlink.com 1.10,2013-05-23 20:21:00,
2013-05-23 13:36:00,54.8,41.0,30.04,West,262,1.0,-999.0,60,-99.99,,,0.00,weatherlink.com 1.10,2013-05-23 20:36:00,
2013-05-23 13:51:00,54.2,40.0,30.04,ESE,123,1.0,-999.0,59,-99.99,,,0.00,weatherlink.com 1.10,2013-05-23 20:51:00,
2013-05-23 14:06:00,53.1,40.0,30.04,SSE,150,0.0,-999.0,62,-99.99,,,0.00,weatherlink.com 1.10,2013-05-23 21:06:00,
2013-05-23 14:21:00,54.5,42.0,30.04,West,261,1.0,-999.0,63,-99.99,,,0.00,weatherlink.com 1.10,2013-05-23 21:21:00,
2013-05-23 14:36:00,55.0,41.0,30.04,WSW,253,0.0,-999.0,59,-99.99,,,0.00,weatherlink.com 1.10,2013-05-23 21:36:00,
2013-05-23 14:51:00,55.7,41.0,30.04,SSE,153,0.0,-999.0,59,-99.99,,,0.00,weatherlink.com 1.10,2013-05-23 21:51:00,
2013-05-23 15:06:00,54.5,42.0,30.04,WSW,250,0.0,-999.0,62,-99.99,,,0.00,weatherlink.com 1.10,2013-05-23 22:06:00,
2013-05-23 15:22:00,57.0,41.0,30.04,West,261,0.0,-999.0,56,-99.99,,,0.00,weatherlink.com 1.10,2013-05-23 22:22:00,
2013-05-23 15:37:00,55.4,42.0,30.04,WSW,244,0.0,-999.0,62,-99.99,,,0.00,weatherlink.com 1.10,2013-05-23 22:37:00,
2013-05-23 15:52:00,55.9,42.0,30.03,WSW,244,0.0,-999.0,59,-99.99,,,0.00,weatherlink.com 1.10,2013-05-23 22:52:00,
2013-05-23 16:07:00,57.7,43.0,30.03,SSW,202,0.0,-999.0,59,-99.99,,,0.00,weatherlink.com 1.10,2013-05-23 23:07:00,
2013-05-23 16:22:00,57.1,43.0,30.03,SW,229,0.0,-999.0,60,-99.99,,,0.00,weatherlink.com 1.10,2013-05-23 23:22:00,
2013-05-23 16:37:00,57.1,44.0,30.02,WSW,237,0.0,-999.0,61,-99.99,,,0.00,weatherlink.com 1.10,2013-05-23 23:37:00,
2013-05-23 17:07:00,56.5,43.0,30.02,WSW,237,0.0,-999.0,62,-99.99,,,0.00,weatherlink.com 1.10,2013-05-24 00:07:00,
2013-05-23 17:22:00,56.2,43.0,30.02,WSW,237,0.0,-999.0,62,-99.99,,,0.00,weatherlink.com 1.10,2013-05-24 00:22:00,
2013-05-23 17:37:00,55.3,43.0,30.02,SW,236,0.0,-999.0,63,-99.99,,,0.00,weatherlink.com 1.10,2013-05-24 00:37:00,
2013-05-23 17:52:00,56.7,44.0,30.02,SW,236,0.0,-999.0,63,-99.99,,,0.00,weatherlink.com 1.10,2013-05-24 00:52:00,
2013-05-23 18:07:00,55.7,43.0,30.01,WSW,238,0.0,-999.0,63,-99.99,,,0.00,weatherlink.com 1.10,2013-05-24 01:07:00,
2013-05-23 18:21:00,56.1,44.0,30.01,WSW,241,0.0,-999.0,65,-99.99,,,0.00,weatherlink.com 1.10,2013-05-24 01:21:00,
2013-05-23 18:36:00,56.3,44.0,30.01,WSW,241,0.0,-999.0,64,-99.99,,,0.00,weatherlink.com 1.10,2013-05-24 01:36:00,
2013-05-23 18:51:00,56.7,44.0,30.00,WSW,241,0.0,-999.0,63,-99.99,,,0.00,weatherlink.com 1.10,2013-05-24 01:51:00,
2013-05-23 19:06:00,56.2,44.0,30.00,WSW,241,0.0,-999.0,63,-99.99,,,0.00,weatherlink.com 1.10,2013-05-24 02:06:00,
2013-05-23 19:21:00,55.7,44.0,30.01,WSW,241,0.0,-999.0,64,-99.99,,,0.00,weatherlink.com 1.10,2013-05-24 02:21:00,
2013-05-23 19:36:00,54.7,43.0,30.01,WSW,241,0.0,-999.0,65,-99.99,,,0.00,weatherlink.com 1.10,2013-05-24 02:36:00,
2013-05-23 19:51:00,53.3,37.0,30.01,WSW,240,0.0,-999.0,54,-99.99,,,0.00,weatherlink.com 1.10,2013-05-24 02:51:00,
2013-05-23 20:06:00,53.6,33.0,30.01,WSW,250,0.0,-999.0,46,-99.99,,,0.00,weatherlink.com 1.10,2013-05-24 03:06:00,
2013-05-23 20:21:00,54.3,33.0,30.01,NNE,30,5.0,-999.0,45,-99.99,,,0.00,weatherlink.com 1.10,2013-05-24 03:21:00,
2013-05-23 20:36:00,56.0,34.0,30.01,NNE,20,5.0,-999.0,43,-99.99,,,0.00,weatherlink.com 1.10,2013-05-24 03:36:00,
2013-05-23 20:51:00,56.5,33.0,30.01,NE,52,2.0,-999.0,42,-99.99,,,0.00,weatherlink.com 1.10,2013-05-24 03:51:00,
2013-05-23 21:06:00,56.9,31.0,30.02,NNE,32,0.0,-999.0,38,-99.99,,,0.00,weatherlink.com 1.10,2013-05-24 04:06:00,
2013-05-23 21:21:00,56.8,30.0,30.02,NNE,32,0.0,-999.0,36,-99.99,,,0.00,weatherlink.com 1.10,2013-05-24 04:21:00,
2013-05-23 21:36:00,56.7,34.0,30.02,NNE,32,0.0,-999.0,42,-99.99,,,0.00,weatherlink.com 1.10,2013-05-24 04:36:00,
2013-05-23 21:51:00,56.2,33.0,30.03,NNE,32,0.0,-999.0,41,-99.99,,,0.00,weatherlink.com 1.10,2013-05-24 04:51:00,
2013-05-23 22:06:00,55.8,32.0,30.03,NNE,32,0.0,-999.0,41,-99.99,,,0.00,weatherlink.com 1.10,2013-05-24 05:06:00,
2013-05-23 22:21:00,55.7,30.0,30.04,NNE,32,0.0,-999.0,38,-99.99,,,0.00,weatherlink.com 1.10,2013-05-24 05:21:00,
2013-05-23 22:36:00,56.3,29.0,30.04,NNE,24,4.0,-999.0,36,-99.99,,,0.00,weatherlink.com 1.10,2013-05-24 05:36:00,
2013-05-23 22:51:00,56.8,30.0,30.03,NNE,20,0.0,-999.0,36,-99.99,,,0.00,weatherlink.com 1.10,2013-05-24 05:51:00,
2013-05-23 23:06:00,57.4,30.0,30.03,North,5,0.0,-999.0,36,-99.99,,,0.00,weatherlink.com 1.10,2013-05-24 06:06:00,
2013-05-23 23:21:00,57.6,31.0,30.03,North,360,0.0,-999.0,37,-99.99,,,0.00,weatherlink.com 1.10,2013-05-24 06:21:00,
2013-05-23 23:36:00,57.4,31.0,30.02,North,10,0.0,-999.0,37,-99.99,,,0.00,weatherlink.com 1.10,2013-05-24 06:36:00,
2013-05-23 23:51:00,57.2,32.0,30.02,NNE,23,0.0,-999.0,38,-99.99,,,0.00,weatherlink.com 1.10,2013-05-24 06:51:00,